sensor_id;sensor_type;location;lat;lon;timestamp;temperature;humidity
59923;DHT22;45778;51.142;3.732;2022-09-29T00:00:26;9.20;99.90
59923;DHT22;45778;51.142;3.732;2022-09-29T00:02:53;9.20;99.90
59923;DHT22;45778;51.142;3.732;2022-09-29T00:05:18;9.20;99.90
59923;DHT22;45778;51.142;3.732;2022-09-29T00:07:44;9.20;99.90
59923;DHT22;45778;51.142;3.732;2022-09-29T00:10:10;9.30;99.90
59923;DHT22;45778;51.142;3.732;2022-09-29T00:12:36;9.40;99.90
59923;DHT22;45778;51.142;3.732;2022-09-29T00:15:02;9.40;99.90
59923;DHT22;45778;51.142;3.732;2022-09-29T00:17:27;9.40;99.90
59923;DHT22;45778;51.142;3.732;2022-09-29T00:19:53;9.40;99.90
59923;DHT22;45778;51.142;3.732;2022-09-29T00:22:19;9.50;99.90
59923;DHT22;45778;51.142;3.732;2022-09-29T00:24:46;9.50;99.90
59923;DHT22;45778;51.142;3.732;2022-09-29T00:27:14;9.50;99.90
59923;DHT22;45778;51.142;3.732;2022-09-29T00:29:39;9.40;99.90
59923;DHT22;45778;51.142;3.732;2022-09-29T00:32:05;9.50;99.90
59923;DHT22;45778;51.142;3.732;2022-09-29T00:34:31;9.50;99.90
59923;DHT22;45778;51.142;3.732;2022-09-29T00:36:56;9.60;99.90
59923;DHT22;45778;51.142;3.732;2022-09-29T00:39:22;9.50;99.90
59923;DHT22;45778;51.142;3.732;2022-09-29T00:41:47;9.40;99.90
59923;DHT22;45778;51.142;3.732;2022-09-29T00:46:58;9.40;99.90
59923;DHT22;45778;51.142;3.732;2022-09-29T00:49:32;9.30;99.90
59923;DHT22;45778;51.142;3.732;2022-09-29T00:52:08;9.30;99.90
59923;DHT22;45778;51.142;3.732;2022-09-29T00:54:38;9.20;99.90
59923;DHT22;45778;51.142;3.732;2022-09-29T00:57:07;9.10;99.90
59923;DHT22;45778;51.142;3.732;2022-09-29T00:59:53;9.10;99.90
59923;DHT22;45778;51.142;3.732;2022-09-29T01:02:23;9.10;99.90
59923;DHT22;45778;51.142;3.732;2022-09-29T01:04:50;9.10;99.90
59923;DHT22;45778;51.142;3.732;2022-09-29T01:07:21;9.00;99.90
59923;DHT22;45778;51.142;3.732;2022-09-29T01:09:49;9.00;99.90
59923;DHT22;45778;51.142;3.732;2022-09-29T01:12:16;9.00;99.90
59923;DHT22;45778;51.142;3.732;2022-09-29T01:14:43;9.00;99.90
59923;DHT22;45778;51.142;3.732;2022-09-29T01:17:09;9.00;99.90
59923;DHT22;45778;51.142;3.732;2022-09-29T01:33:57;9.10;99.90
59923;DHT22;45778;51.142;3.732;2022-09-29T01:42:00;8.70;99.90
59923;DHT22;45778;51.142;3.732;2022-09-29T01:47:24;8.60;99.90
59923;DHT22;45778;51.142;3.732;2022-09-29T01:50:00;8.60;99.90
59923;DHT22;45778;51.142;3.732;2022-09-29T01:52:30;8.70;99.90
59923;DHT22;45778;51.142;3.732;2022-09-29T01:55:01;8.60;99.90
59923;DHT22;45778;51.142;3.732;2022-09-29T01:57:44;8.60;99.90
59923;DHT22;45778;51.142;3.732;2022-09-29T02:00:13;8.60;99.90
59923;DHT22;45778;51.142;3.732;2022-09-29T02:03:00;8.50;99.90
59923;DHT22;45778;51.142;3.732;2022-09-29T02:05:31;8.50;99.90
59923;DHT22;45778;51.142;3.732;2022-09-29T02:08:01;8.40;99.90
59923;DHT22;45778;51.142;3.732;2022-09-29T02:10:39;8.30;99.90
59923;DHT22;45778;51.142;3.732;2022-09-29T02:13:06;8.40;99.90
59923;DHT22;45778;51.142;3.732;2022-09-29T02:15:35;8.20;99.90
59923;DHT22;45778;51.142;3.732;2022-09-29T02:18:10;8.40;99.90
59923;DHT22;45778;51.142;3.732;2022-09-29T02:20:36;8.30;99.90
59923;DHT22;45778;51.142;3.732;2022-09-29T02:23:02;8.40;99.90
59923;DHT22;45778;51.142;3.732;2022-09-29T02:25:28;8.40;99.90
59923;DHT22;45778;51.142;3.732;2022-09-29T02:27:54;8.30;99.90
59923;DHT22;45778;51.142;3.732;2022-09-29T02:30:19;8.20;99.90
59923;DHT22;45778;51.142;3.732;2022-09-29T02:32:46;8.40;99.90
59923;DHT22;45778;51.142;3.732;2022-09-29T02:35:13;8.20;99.90
59923;DHT22;45778;51.142;3.732;2022-09-29T02:41:12;8.00;99.90
59923;DHT22;45778;51.142;3.732;2022-09-29T02:46:28;8.00;99.90
59923;DHT22;45778;51.142;3.732;2022-09-29T02:51:39;8.10;99.90
59923;DHT22;45778;51.142;3.732;2022-09-29T02:54:38;8.10;99.90
59923;DHT22;45778;51.142;3.732;2022-09-29T02:57:21;8.20;99.90
59923;DHT22;45778;51.142;3.732;2022-09-29T03:02:40;8.30;99.90
59923;DHT22;45778;51.142;3.732;2022-09-29T03:05:09;8.20;99.90
59923;DHT22;45778;51.142;3.732;2022-09-29T03:07:36;8.20;99.90
59923;DHT22;45778;51.142;3.732;2022-09-29T03:10:02;8.10;99.90
59923;DHT22;45778;51.142;3.732;2022-09-29T03:12:28;8.20;99.90
59923;DHT22;45778;51.142;3.732;2022-09-29T03:14:54;8.20;99.90
59923;DHT22;45778;51.142;3.732;2022-09-29T03:17:19;8.20;99.90
59923;DHT22;45778;51.142;3.732;2022-09-29T03:19:45;8.30;99.90
59923;DHT22;45778;51.142;3.732;2022-09-29T03:22:11;8.30;99.90
59923;DHT22;45778;51.142;3.732;2022-09-29T03:24:36;8.30;99.90
59923;DHT22;45778;51.142;3.732;2022-09-29T03:27:02;8.30;99.90
59923;DHT22;45778;51.142;3.732;2022-09-29T03:29:29;8.30;99.90
59923;DHT22;45778;51.142;3.732;2022-09-29T03:31:54;8.30;99.90
59923;DHT22;45778;51.142;3.732;2022-09-29T03:34:20;8.20;99.90
59923;DHT22;45778;51.142;3.732;2022-09-29T03:36:46;8.10;99.90
59923;DHT22;45778;51.142;3.732;2022-09-29T03:39:11;8.10;99.90
59923;DHT22;45778;51.142;3.732;2022-09-29T03:41:37;8.10;99.90
59923;DHT22;45778;51.142;3.732;2022-09-29T03:44:02;8.10;99.90
59923;DHT22;45778;51.142;3.732;2022-09-29T03:46:28;8.20;99.90
59923;DHT22;45778;51.142;3.732;2022-09-29T03:48:54;8.20;99.90
59923;DHT22;45778;51.142;3.732;2022-09-29T03:51:19;8.10;99.90
59923;DHT22;45778;51.142;3.732;2022-09-29T03:53:45;8.20;99.90
59923;DHT22;45778;51.142;3.732;2022-09-29T03:56:10;8.20;99.90
59923;DHT22;45778;51.142;3.732;2022-09-29T03:58:36;8.30;99.90
59923;DHT22;45778;51.142;3.732;2022-09-29T04:01:02;8.50;99.90
59923;DHT22;45778;51.142;3.732;2022-09-29T04:03:27;8.50;99.90
59923;DHT22;45778;51.142;3.732;2022-09-29T04:05:53;8.60;99.90
59923;DHT22;45778;51.142;3.732;2022-09-29T04:08:19;8.60;99.90
59923;DHT22;45778;51.142;3.732;2022-09-29T04:10:47;8.60;99.90
59923;DHT22;45778;51.142;3.732;2022-09-29T04:13:14;8.60;99.90
59923;DHT22;45778;51.142;3.732;2022-09-29T04:15:40;8.60;99.90
59923;DHT22;45778;51.142;3.732;2022-09-29T04:18:05;8.60;99.90
59923;DHT22;45778;51.142;3.732;2022-09-29T04:20:31;8.60;99.90
59923;DHT22;45778;51.142;3.732;2022-09-29T04:22:58;8.60;99.90
59923;DHT22;45778;51.142;3.732;2022-09-29T04:25:23;8.50;99.90
59923;DHT22;45778;51.142;3.732;2022-09-29T04:27:49;8.60;99.90
59923;DHT22;45778;51.142;3.732;2022-09-29T04:30:15;8.60;99.90
59923;DHT22;45778;51.142;3.732;2022-09-29T04:32:41;8.70;99.90
59923;DHT22;45778;51.142;3.732;2022-09-29T04:35:07;8.70;99.90
59923;DHT22;45778;51.142;3.732;2022-09-29T04:37:33;8.70;99.90
59923;DHT22;45778;51.142;3.732;2022-09-29T04:39:59;8.60;99.90
59923;DHT22;45778;51.142;3.732;2022-09-29T04:42:25;8.60;99.90
59923;DHT22;45778;51.142;3.732;2022-09-29T04:44:50;8.60;99.90
59923;DHT22;45778;51.142;3.732;2022-09-29T04:47:16;8.50;99.90
59923;DHT22;45778;51.142;3.732;2022-09-29T04:49:42;8.40;99.90
59923;DHT22;45778;51.142;3.732;2022-09-29T04:52:10;8.50;99.90
59923;DHT22;45778;51.142;3.732;2022-09-29T04:54:36;8.40;99.90
59923;DHT22;45778;51.142;3.732;2022-09-29T04:57:01;8.30;99.90
59923;DHT22;45778;51.142;3.732;2022-09-29T04:59:27;8.30;99.90
59923;DHT22;45778;51.142;3.732;2022-09-29T05:01:53;8.30;99.90
59923;DHT22;45778;51.142;3.732;2022-09-29T05:04:19;8.40;99.90
59923;DHT22;45778;51.142;3.732;2022-09-29T05:06:45;8.30;99.90
59923;DHT22;45778;51.142;3.732;2022-09-29T05:09:11;8.40;99.90
59923;DHT22;45778;51.142;3.732;2022-09-29T05:11:37;8.20;99.90
59923;DHT22;45778;51.142;3.732;2022-09-29T05:14:03;8.20;99.90
59923;DHT22;45778;51.142;3.732;2022-09-29T05:16:29;8.20;99.90
59923;DHT22;45778;51.142;3.732;2022-09-29T05:18:55;8.20;99.90
59923;DHT22;45778;51.142;3.732;2022-09-29T05:21:20;8.20;99.90
59923;DHT22;45778;51.142;3.732;2022-09-29T05:23:46;8.20;99.90
59923;DHT22;45778;51.142;3.732;2022-09-29T05:26:12;8.20;99.90
59923;DHT22;45778;51.142;3.732;2022-09-29T05:28:41;8.20;99.90
59923;DHT22;45778;51.142;3.732;2022-09-29T05:31:08;8.30;99.90
59923;DHT22;45778;51.142;3.732;2022-09-29T05:33:35;8.20;99.90
59923;DHT22;45778;51.142;3.732;2022-09-29T05:36:03;8.20;99.90
59923;DHT22;45778;51.142;3.732;2022-09-29T05:38:32;8.10;99.90
59923;DHT22;45778;51.142;3.732;2022-09-29T05:41:03;8.10;99.90
59923;DHT22;45778;51.142;3.732;2022-09-29T05:43:29;8.10;99.90
59923;DHT22;45778;51.142;3.732;2022-09-29T05:46:02;8.20;99.90
59923;DHT22;45778;51.142;3.732;2022-09-29T05:48:28;8.20;99.90
59923;DHT22;45778;51.142;3.732;2022-09-29T05:50:58;8.20;99.90
59923;DHT22;45778;51.142;3.732;2022-09-29T05:53:25;8.30;99.90
59923;DHT22;45778;51.142;3.732;2022-09-29T05:55:51;8.30;99.90
59923;DHT22;45778;51.142;3.732;2022-09-29T05:58:17;8.20;99.90
59923;DHT22;45778;51.142;3.732;2022-09-29T06:00:43;8.20;99.90
59923;DHT22;45778;51.142;3.732;2022-09-29T06:03:08;8.30;99.90
59923;DHT22;45778;51.142;3.732;2022-09-29T06:05:37;8.30;99.90
59923;DHT22;45778;51.142;3.732;2022-09-29T06:08:03;8.30;99.90
59923;DHT22;45778;51.142;3.732;2022-09-29T06:10:29;8.30;99.90
59923;DHT22;45778;51.142;3.732;2022-09-29T06:12:54;8.40;99.90
59923;DHT22;45778;51.142;3.732;2022-09-29T06:15:21;8.30;99.90
59923;DHT22;45778;51.142;3.732;2022-09-29T06:17:53;8.50;99.90
59923;DHT22;45778;51.142;3.732;2022-09-29T06:20:18;8.50;99.90
59923;DHT22;45778;51.142;3.732;2022-09-29T06:22:44;8.40;99.90
59923;DHT22;45778;51.142;3.732;2022-09-29T06:25:10;8.50;99.90
59923;DHT22;45778;51.142;3.732;2022-09-29T06:27:35;8.50;99.90
59923;DHT22;45778;51.142;3.732;2022-09-29T06:30:01;8.60;99.90
59923;DHT22;45778;51.142;3.732;2022-09-29T06:32:27;8.80;99.90
59923;DHT22;45778;51.142;3.732;2022-09-29T06:34:52;8.60;99.90
59923;DHT22;45778;51.142;3.732;2022-09-29T06:37:37;8.70;99.90
59923;DHT22;45778;51.142;3.732;2022-09-29T06:40:08;8.80;99.90
59923;DHT22;45778;51.142;3.732;2022-09-29T06:42:34;8.80;99.90
59923;DHT22;45778;51.142;3.732;2022-09-29T06:45:00;8.90;99.90
59923;DHT22;45778;51.142;3.732;2022-09-29T06:47:26;9.00;99.90
59923;DHT22;45778;51.142;3.732;2022-09-29T06:49:52;9.20;99.90
59923;DHT22;45778;51.142;3.732;2022-09-29T06:52:17;9.00;99.90
59923;DHT22;45778;51.142;3.732;2022-09-29T06:54:43;9.00;99.90
59923;DHT22;45778;51.142;3.732;2022-09-29T06:57:09;9.10;99.90
59923;DHT22;45778;51.142;3.732;2022-09-29T06:59:35;9.20;99.90
59923;DHT22;45778;51.142;3.732;2022-09-29T07:02:01;9.40;99.90
59923;DHT22;45778;51.142;3.732;2022-09-29T07:04:26;9.50;99.90
59923;DHT22;45778;51.142;3.732;2022-09-29T07:06:52;9.70;99.90
59923;DHT22;45778;51.142;3.732;2022-09-29T07:09:18;9.80;99.90
59923;DHT22;45778;51.142;3.732;2022-09-29T07:11:50;9.90;99.90
59923;DHT22;45778;51.142;3.732;2022-09-29T07:14:18;9.90;99.90
59923;DHT22;45778;51.142;3.732;2022-09-29T07:16:44;9.90;99.90
59923;DHT22;45778;51.142;3.732;2022-09-29T07:19:11;10.10;99.90
59923;DHT22;45778;51.142;3.732;2022-09-29T07:21:36;10.10;99.90
59923;DHT22;45778;51.142;3.732;2022-09-29T07:24:02;10.20;99.90
59923;DHT22;45778;51.142;3.732;2022-09-29T07:26:28;10.30;99.90
59923;DHT22;45778;51.142;3.732;2022-09-29T07:28:54;10.30;99.90
59923;DHT22;45778;51.142;3.732;2022-09-29T07:31:21;10.30;99.90
59923;DHT22;45778;51.142;3.732;2022-09-29T07:33:48;10.40;99.90
59923;DHT22;45778;51.142;3.732;2022-09-29T07:36:15;10.50;99.90
59923;DHT22;45778;51.142;3.732;2022-09-29T07:38:45;10.50;99.90
59923;DHT22;45778;51.142;3.732;2022-09-29T07:41:11;10.60;99.90
59923;DHT22;45778;51.142;3.732;2022-09-29T07:43:37;10.70;99.90
59923;DHT22;45778;51.142;3.732;2022-09-29T07:46:03;10.80;99.90
59923;DHT22;45778;51.142;3.732;2022-09-29T07:48:30;10.90;99.90
59923;DHT22;45778;51.142;3.732;2022-09-29T07:51:04;10.90;99.90
59923;DHT22;45778;51.142;3.732;2022-09-29T07:53:31;10.90;99.90
59923;DHT22;45778;51.142;3.732;2022-09-29T07:56:04;11.10;99.90
59923;DHT22;45778;51.142;3.732;2022-09-29T07:58:31;11.20;99.90
59923;DHT22;45778;51.142;3.732;2022-09-29T08:00:57;11.20;99.90
59923;DHT22;45778;51.142;3.732;2022-09-29T08:03:23;11.30;99.90
59923;DHT22;45778;51.142;3.732;2022-09-29T08:05:51;11.20;99.90
59923;DHT22;45778;51.142;3.732;2022-09-29T08:08:18;11.30;99.90
59923;DHT22;45778;51.142;3.732;2022-09-29T08:10:44;11.40;99.90
59923;DHT22;45778;51.142;3.732;2022-09-29T08:13:09;11.50;99.90
59923;DHT22;45778;51.142;3.732;2022-09-29T08:15:35;11.50;99.90
59923;DHT22;45778;51.142;3.732;2022-09-29T08:18:01;11.60;99.90
59923;DHT22;45778;51.142;3.732;2022-09-29T08:20:26;11.50;99.90
59923;DHT22;45778;51.142;3.732;2022-09-29T08:22:52;11.60;99.90
59923;DHT22;45778;51.142;3.732;2022-09-29T08:25:21;11.70;99.90
59923;DHT22;45778;51.142;3.732;2022-09-29T08:27:48;11.90;99.90
59923;DHT22;45778;51.142;3.732;2022-09-29T08:30:14;11.90;99.90
59923;DHT22;45778;51.142;3.732;2022-09-29T08:32:40;12.00;99.90
59923;DHT22;45778;51.142;3.732;2022-09-29T08:35:06;12.00;99.90
59923;DHT22;45778;51.142;3.732;2022-09-29T08:37:31;12.20;99.90
59923;DHT22;45778;51.142;3.732;2022-09-29T08:39:57;12.30;99.90
59923;DHT22;45778;51.142;3.732;2022-09-29T08:45:34;12.40;99.90
59923;DHT22;45778;51.142;3.732;2022-09-29T08:48:15;12.60;99.90
59923;DHT22;45778;51.142;3.732;2022-09-29T08:50:54;12.80;99.90
59923;DHT22;45778;51.142;3.732;2022-09-29T08:53:22;12.90;99.90
59923;DHT22;45778;51.142;3.732;2022-09-29T08:58:18;12.90;99.90
59923;DHT22;45778;51.142;3.732;2022-09-29T09:00:49;13.10;99.90
59923;DHT22;45778;51.142;3.732;2022-09-29T09:03:36;13.30;99.90
59923;DHT22;45778;51.142;3.732;2022-09-29T09:11:43;13.50;99.90
59923;DHT22;45778;51.142;3.732;2022-09-29T09:14:32;13.60;99.90
59923;DHT22;45778;51.142;3.732;2022-09-29T09:22:56;13.80;99.90
59923;DHT22;45778;51.142;3.732;2022-09-29T09:25:31;14.00;99.90
59923;DHT22;45778;51.142;3.732;2022-09-29T09:28:20;14.10;99.90
59923;DHT22;45778;51.142;3.732;2022-09-29T09:33:36;14.50;99.90
59923;DHT22;45778;51.142;3.732;2022-09-29T09:36:16;14.50;99.90
59923;DHT22;45778;51.142;3.732;2022-09-29T09:39:33;14.60;99.90
59923;DHT22;45778;51.142;3.732;2022-09-29T09:41:34;14.60;99.90
59923;DHT22;45778;51.142;3.732;2022-09-29T09:44:26;14.80;99.90
59923;DHT22;45778;51.142;3.732;2022-09-29T09:49:54;15.20;99.90
59923;DHT22;45778;51.142;3.732;2022-09-29T09:52:51;15.30;99.90
59923;DHT22;45778;51.142;3.732;2022-09-29T09:55:22;15.40;99.90
59923;DHT22;45778;51.142;3.732;2022-09-29T10:00:45;15.50;99.90
59923;DHT22;45778;51.142;3.732;2022-09-29T10:03:12;15.60;99.90
59923;DHT22;45778;51.142;3.732;2022-09-29T10:05:41;15.60;99.90
59923;DHT22;45778;51.142;3.732;2022-09-29T10:08:12;15.60;99.90
59923;DHT22;45778;51.142;3.732;2022-09-29T10:10:41;15.60;99.90
59923;DHT22;45778;51.142;3.732;2022-09-29T10:13:11;15.50;99.90
59923;DHT22;45778;51.142;3.732;2022-09-29T10:23:57;16.40;99.90
59923;DHT22;45778;51.142;3.732;2022-09-29T10:26:46;16.30;99.90
59923;DHT22;45778;51.142;3.732;2022-09-29T10:31:57;16.50;99.90
59923;DHT22;45778;51.142;3.732;2022-09-29T10:34:24;16.90;99.90
59923;DHT22;45778;51.142;3.732;2022-09-29T10:39:42;17.20;99.90
59923;DHT22;45778;51.142;3.732;2022-09-29T10:44:54;17.70;99.90
59923;DHT22;45778;51.142;3.732;2022-09-29T10:47:25;18.30;99.90
59923;DHT22;45778;51.142;3.732;2022-09-29T10:50:14;18.80;99.70
59923;DHT22;45778;51.142;3.732;2022-09-29T10:52:54;19.10;98.50
59923;DHT22;45778;51.142;3.732;2022-09-29T10:55:25;18.70;99.90
59923;DHT22;45778;51.142;3.732;2022-09-29T10:57:54;18.60;99.90
59923;DHT22;45778;51.142;3.732;2022-09-29T11:03:02;18.10;99.90
59923;DHT22;45778;51.142;3.732;2022-09-29T11:05:30;17.60;99.90
59923;DHT22;45778;51.142;3.732;2022-09-29T11:07:56;17.00;99.90
59923;DHT22;45778;51.142;3.732;2022-09-29T11:10:33;16.60;99.90
59923;DHT22;45778;51.142;3.732;2022-09-29T11:15:46;15.90;99.90
59923;DHT22;45778;51.142;3.732;2022-09-29T11:18:28;15.50;99.90
59923;DHT22;45778;51.142;3.732;2022-09-29T11:24:02;15.70;99.90
59923;DHT22;45778;51.142;3.732;2022-09-29T11:26:49;15.70;99.90
59923;DHT22;45778;51.142;3.732;2022-09-29T11:29:40;15.80;99.90
59923;DHT22;45778;51.142;3.732;2022-09-29T11:37:39;15.50;99.90
59923;DHT22;45778;51.142;3.732;2022-09-29T11:40:22;15.30;99.90
59923;DHT22;45778;51.142;3.732;2022-09-29T12:00:10;13.80;99.90
59923;DHT22;45778;51.142;3.732;2022-09-29T12:03:03;13.70;99.90
59923;DHT22;45778;51.142;3.732;2022-09-29T12:05:36;13.70;99.90
59923;DHT22;45778;51.142;3.732;2022-09-29T12:08:26;13.80;99.90
59923;DHT22;45778;51.142;3.732;2022-09-29T12:11:03;13.90;99.90
59923;DHT22;45778;51.142;3.732;2022-09-29T12:13:59;13.90;99.90
59923;DHT22;45778;51.142;3.732;2022-09-29T12:16:31;13.80;99.90
59923;DHT22;45778;51.142;3.732;2022-09-29T12:19:02;14.10;99.90
59923;DHT22;45778;51.142;3.732;2022-09-29T12:21:36;14.10;99.90
59923;DHT22;45778;51.142;3.732;2022-09-29T12:24:11;14.20;99.90
59923;DHT22;45778;51.142;3.732;2022-09-29T12:26:39;14.30;99.90
59923;DHT22;45778;51.142;3.732;2022-09-29T12:29:25;14.60;99.90
59923;DHT22;45778;51.142;3.732;2022-09-29T12:31:55;15.20;99.90
59923;DHT22;45778;51.142;3.732;2022-09-29T12:34:33;16.20;99.90
59923;DHT22;45778;51.142;3.732;2022-09-29T12:37:08;17.80;99.90
59923;DHT22;45778;51.142;3.732;2022-09-29T12:39:38;18.80;99.90
59923;DHT22;45778;51.142;3.732;2022-09-29T12:44:55;20.20;99.20
59923;DHT22;45778;51.142;3.732;2022-09-29T12:47:32;20.50;98.40
59923;DHT22;45778;51.142;3.732;2022-09-29T12:50:15;19.80;98.50
59923;DHT22;45778;51.142;3.732;2022-09-29T12:52:56;20.40;99.90
59923;DHT22;45778;51.142;3.732;2022-09-29T12:58:13;23.00;94.80
59923;DHT22;45778;51.142;3.732;2022-09-29T13:00:42;23.80;94.00
59923;DHT22;45778;51.142;3.732;2022-09-29T13:03:46;24.50;92.00
59923;DHT22;45778;51.142;3.732;2022-09-29T13:17:03;19.80;97.10
59923;DHT22;45778;51.142;3.732;2022-09-29T13:19:46;18.00;99.90
59923;DHT22;45778;51.142;3.732;2022-09-29T13:25:06;15.80;99.90
59923;DHT22;45778;51.142;3.732;2022-09-29T13:27:44;15.10;99.90
59923;DHT22;45778;51.142;3.732;2022-09-29T13:35:22;13.60;99.90
59923;DHT22;45778;51.142;3.732;2022-09-29T13:38:02;13.30;99.90
59923;DHT22;45778;51.142;3.732;2022-09-29T13:40:29;13.20;99.90
59923;DHT22;45778;51.142;3.732;2022-09-29T13:43:04;13.10;99.90
59923;DHT22;45778;51.142;3.732;2022-09-29T13:48:01;13.40;99.90
59923;DHT22;45778;51.142;3.732;2022-09-29T13:50:43;13.50;99.90
59923;DHT22;45778;51.142;3.732;2022-09-29T13:55:55;13.70;99.90
59923;DHT22;45778;51.142;3.732;2022-09-29T14:01:34;14.00;99.90
59923;DHT22;45778;51.142;3.732;2022-09-29T14:04:41;14.00;99.90
59923;DHT22;45778;51.142;3.732;2022-09-29T14:07:15;14.10;99.90
59923;DHT22;45778;51.142;3.732;2022-09-29T14:09:55;14.10;99.90
59923;DHT22;45778;51.142;3.732;2022-09-29T14:12:23;14.10;99.90
59923;DHT22;45778;51.142;3.732;2022-09-29T14:14:56;14.10;99.90
59923;DHT22;45778;51.142;3.732;2022-09-29T14:17:28;14.10;99.90
59923;DHT22;45778;51.142;3.732;2022-09-29T14:20:25;14.20;99.90
59923;DHT22;45778;51.142;3.732;2022-09-29T14:25:32;14.80;99.90
59923;DHT22;45778;51.142;3.732;2022-09-29T14:28:06;15.10;99.90
59923;DHT22;45778;51.142;3.732;2022-09-29T14:33:10;17.20;99.90
59923;DHT22;45778;51.142;3.732;2022-09-29T14:35:40;19.20;99.90
59923;DHT22;45778;51.142;3.732;2022-09-29T14:38:13;21.80;99.90
59923;DHT22;45778;51.142;3.732;2022-09-29T14:40:57;24.60;99.90
59923;DHT22;45778;51.142;3.732;2022-09-29T14:46:52;29.30;87.10
59923;DHT22;45778;51.142;3.732;2022-09-29T15:03:08;28.10;71.90
59923;DHT22;45778;51.142;3.732;2022-09-29T15:05:35;28.80;70.00
59923;DHT22;45778;51.142;3.732;2022-09-29T15:08:02;29.30;69.40
59923;DHT22;45778;51.142;3.732;2022-09-29T15:10:45;29.50;68.30
59923;DHT22;45778;51.142;3.732;2022-09-29T15:13:25;30.50;66.30
59923;DHT22;45778;51.142;3.732;2022-09-29T15:26:34;24.60;70.80
59923;DHT22;45778;51.142;3.732;2022-09-29T15:29:05;23.20;76.70
59923;DHT22;45778;51.142;3.732;2022-09-29T15:31:32;23.10;77.90
59923;DHT22;45778;51.142;3.732;2022-09-29T15:34:02;22.60;78.30
59923;DHT22;45778;51.142;3.732;2022-09-29T15:36:39;21.70;79.50
59923;DHT22;45778;51.142;3.732;2022-09-29T15:39:21;21.20;82.10
59923;DHT22;45778;51.142;3.732;2022-09-29T15:42:11;20.20;86.30
59923;DHT22;45778;51.142;3.732;2022-09-29T15:44:59;19.80;87.80
59923;DHT22;45778;51.142;3.732;2022-09-29T15:47:39;19.30;90.00
59923;DHT22;45778;51.142;3.732;2022-09-29T15:50:25;18.30;92.10
59923;DHT22;45778;51.142;3.732;2022-09-29T15:52:52;17.60;95.60
59923;DHT22;45778;51.142;3.732;2022-09-29T15:55:22;17.40;96.80
59923;DHT22;45778;51.142;3.732;2022-09-29T15:57:49;17.40;96.70
59923;DHT22;45778;51.142;3.732;2022-09-29T16:05:38;16.60;99.90
59923;DHT22;45778;51.142;3.732;2022-09-29T16:08:16;16.60;99.90
59923;DHT22;45778;51.142;3.732;2022-09-29T16:13:31;17.60;99.90
59923;DHT22;45778;51.142;3.732;2022-09-29T16:16:01;17.90;99.90
59923;DHT22;45778;51.142;3.732;2022-09-29T16:18:41;18.00;99.90
59923;DHT22;45778;51.142;3.732;2022-09-29T16:21:16;17.80;99.90
59923;DHT22;45778;51.142;3.732;2022-09-29T16:23:51;17.40;99.90
59923;DHT22;45778;51.142;3.732;2022-09-29T16:29:10;18.90;99.30
59923;DHT22;45778;51.142;3.732;2022-09-29T16:31:47;20.20;97.50
59923;DHT22;45778;51.142;3.732;2022-09-29T16:36:55;21.20;95.30
59923;DHT22;45778;51.142;3.732;2022-09-29T16:39:27;21.40;94.10
59923;DHT22;45778;51.142;3.732;2022-09-29T16:41:54;21.10;93.90
59923;DHT22;45778;51.142;3.732;2022-09-29T16:46:55;20.40;94.90
59923;DHT22;45778;51.142;3.732;2022-09-29T16:49:28;20.10;95.70
59923;DHT22;45778;51.142;3.732;2022-09-29T16:52:19;19.60;96.10
59923;DHT22;45778;51.142;3.732;2022-09-29T16:54:44;18.80;97.20
59923;DHT22;45778;51.142;3.732;2022-09-29T16:57:24;17.90;99.30
59923;DHT22;45778;51.142;3.732;2022-09-29T16:59:53;17.50;99.90
59923;DHT22;45778;51.142;3.732;2022-09-29T17:02:19;17.40;99.90
59923;DHT22;45778;51.142;3.732;2022-09-29T17:04:47;17.00;99.90
59923;DHT22;45778;51.142;3.732;2022-09-29T17:07:14;16.50;99.90
59923;DHT22;45778;51.142;3.732;2022-09-29T17:09:43;16.10;99.90
59923;DHT22;45778;51.142;3.732;2022-09-29T17:12:14;15.80;99.90
59923;DHT22;45778;51.142;3.732;2022-09-29T17:14:40;15.50;99.90
59923;DHT22;45778;51.142;3.732;2022-09-29T17:17:09;15.20;99.90
59923;DHT22;45778;51.142;3.732;2022-09-29T17:19:38;15.10;99.90
59923;DHT22;45778;51.142;3.732;2022-09-29T17:22:28;14.90;99.90
59923;DHT22;45778;51.142;3.732;2022-09-29T17:24:54;14.70;99.90
59923;DHT22;45778;51.142;3.732;2022-09-29T17:27:20;14.50;99.90
59923;DHT22;45778;51.142;3.732;2022-09-29T17:30:05;14.50;99.90
59923;DHT22;45778;51.142;3.732;2022-09-29T17:32:31;14.60;99.90
59923;DHT22;45778;51.142;3.732;2022-09-29T17:34:57;14.20;99.90
59923;DHT22;45778;51.142;3.732;2022-09-29T17:37:23;13.90;99.90
59923;DHT22;45778;51.142;3.732;2022-09-29T17:39:49;13.80;99.90
59923;DHT22;45778;51.142;3.732;2022-09-29T17:42:15;13.70;99.90
59923;DHT22;45778;51.142;3.732;2022-09-29T17:44:41;13.60;99.90
59923;DHT22;45778;51.142;3.732;2022-09-29T17:47:15;13.40;99.90
59923;DHT22;45778;51.142;3.732;2022-09-29T17:49:42;13.40;99.90
59923;DHT22;45778;51.142;3.732;2022-09-29T17:52:08;13.20;99.90
59923;DHT22;45778;51.142;3.732;2022-09-29T17:54:39;13.10;99.90
59923;DHT22;45778;51.142;3.732;2022-09-29T17:57:05;13.00;99.90
59923;DHT22;45778;51.142;3.732;2022-09-29T17:59:32;12.90;99.90
59923;DHT22;45778;51.142;3.732;2022-09-29T18:02:12;12.80;99.90
59923;DHT22;45778;51.142;3.732;2022-09-29T18:04:38;12.70;99.90
59923;DHT22;45778;51.142;3.732;2022-09-29T18:07:10;12.60;99.90
59923;DHT22;45778;51.142;3.732;2022-09-29T18:09:38;12.50;99.90
59923;DHT22;45778;51.142;3.732;2022-09-29T18:12:04;12.50;99.90
59923;DHT22;45778;51.142;3.732;2022-09-29T18:14:30;12.50;99.90
59923;DHT22;45778;51.142;3.732;2022-09-29T18:17:00;12.40;99.90
59923;DHT22;45778;51.142;3.732;2022-09-29T18:19:29;12.30;99.90
59923;DHT22;45778;51.142;3.732;2022-09-29T18:21:55;12.20;99.90
59923;DHT22;45778;51.142;3.732;2022-09-29T18:24:22;12.00;99.90
59923;DHT22;45778;51.142;3.732;2022-09-29T18:26:48;12.00;99.90
59923;DHT22;45778;51.142;3.732;2022-09-29T18:29:17;11.90;99.90
59923;DHT22;45778;51.142;3.732;2022-09-29T18:31:43;12.00;99.90
59923;DHT22;45778;51.142;3.732;2022-09-29T18:34:17;11.80;99.90
59923;DHT22;45778;51.142;3.732;2022-09-29T18:36:43;11.70;99.90
59923;DHT22;45778;51.142;3.732;2022-09-29T18:39:12;11.70;99.90
59923;DHT22;45778;51.142;3.732;2022-09-29T18:41:38;11.70;99.90
59923;DHT22;45778;51.142;3.732;2022-09-29T18:44:12;11.70;99.90
59923;DHT22;45778;51.142;3.732;2022-09-29T18:46:38;11.70;99.90
59923;DHT22;45778;51.142;3.732;2022-09-29T18:49:03;11.60;99.90
59923;DHT22;45778;51.142;3.732;2022-09-29T18:51:29;11.50;99.90
59923;DHT22;45778;51.142;3.732;2022-09-29T18:53:55;11.60;99.90
59923;DHT22;45778;51.142;3.732;2022-09-29T18:56:23;11.70;99.90
59923;DHT22;45778;51.142;3.732;2022-09-29T18:58:49;11.60;99.90
59923;DHT22;45778;51.142;3.732;2022-09-29T19:01:19;11.50;99.90
59923;DHT22;45778;51.142;3.732;2022-09-29T19:03:47;11.50;99.90
59923;DHT22;45778;51.142;3.732;2022-09-29T19:06:13;11.40;99.90
59923;DHT22;45778;51.142;3.732;2022-09-29T19:08:40;11.30;99.90